Time;durP1;ratioP1;P1;durP2;ratioP2;P2;SDS_P1;SDS_P2;PMS_P1;PMS_P2;Temp;Humidity;BMP_temperature;BMP_pressure;BME280_temperature;BME280_humidity;BME280_pressure;Samples;Min_cycle;Max_cycle;Signal;HPM_P1;HPM_P2
2023/05/10 00:01:47;;;;;;;1.42;0.68;;;;;;;21.46;36.46;101094.63;4840653;29;20107;-75
2023/05/10 00:04:16;;;;;;;1.40;0.60;;;;;;;21.49;36.37;101099.88;4828214;29;20053;-76
2023/05/10 00:06:44;;;;;;;1.52;0.70;;;;;;;21.49;38.87;101094.63;4830530;29;20050;-76
2023/05/10 00:09:13;;;;;;;0.93;0.70;;;;;;;21.48;38.74;101091.09;4835710;29;20058;-75
2023/05/10 00:11:41;;;;;;;1.67;0.60;;;;;;;21.50;38.29;101081.41;4832595;29;20496;-76
2023/05/10 00:14:12;;;;;;;2.85;0.80;;;;;;;21.50;38.00;101078.78;4832306;29;20080;-76
2023/05/10 00:16:40;;;;;;;1.40;0.77;;;;;;;21.49;38.01;101084.97;4837046;29;20118;-76
2023/05/10 00:19:09;;;;;;;1.48;0.90;;;;;;;21.49;38.14;101079.69;4835242;29;20065;-77
2023/05/10 00:21:37;;;;;;;0.80;0.60;;;;;;;21.50;37.66;101078.78;4835777;29;20073;-76
2023/05/10 00:24:07;;;;;;;1.02;0.60;;;;;;;21.50;37.26;101081.41;4832137;29;20061;-74
2023/05/10 00:26:35;;;;;;;2.53;0.75;;;;;;;21.51;37.84;101075.28;4836649;29;20042;-75
2023/05/10 00:29:04;;;;;;;1.25;0.80;;;;;;;21.50;36.50;101070.88;4832555;29;20046;-77
2023/05/10 00:31:34;;;;;;;1.60;0.70;;;;;;;21.49;38.16;101068.28;4837960;29;20058;-74
2023/05/10 00:34:03;;;;;;;1.00;0.70;;;;;;;21.48;37.90;101064.75;4835384;29;20099;-75
2023/05/10 00:36:31;;;;;;;1.63;0.90;;;;;;;21.49;38.74;101065.66;4833819;29;20058;-75
2023/05/10 00:39:00;;;;;;;1.33;0.70;;;;;;;21.48;37.59;101066.53;4840437;29;20126;-76
2023/05/10 00:41:29;;;;;;;2.00;0.88;;;;;;;21.47;37.70;101065.66;4837050;29;20041;-74
2023/05/10 00:43:57;;;;;;;2.20;0.80;;;;;;;21.47;38.45;101060.41;4832206;29;20467;-73
2023/05/10 00:46:26;;;;;;;1.60;0.93;;;;;;;21.47;37.34;101057.78;4830733;29;20053;-75
2023/05/10 00:48:57;;;;;;;1.20;0.88;;;;;;;21.48;36.88;101059.50;4837837;29;20058;-75
2023/05/10 00:51:26;;;;;;;1.58;0.70;;;;;;;21.45;37.89;101050.78;4838832;29;20073;-74
2023/05/10 00:53:55;;;;;;;1.20;0.70;;;;;;;21.42;37.43;101053.47;4836906;29;20054;-74
2023/05/10 00:56:24;;;;;;;1.27;0.70;;;;;;;21.39;39.54;101042.91;4829968;29;20065;-75
2023/05/10 00:58:53;;;;;;;1.55;0.80;;;;;;;21.36;39.08;101046.44;4834915;29;20050;-76
2023/05/10 01:01:22;;;;;;;1.58;0.90;;;;;;;21.35;38.44;101044.72;4834684;29;20061;-74
2023/05/10 01:03:51;;;;;;;2.13;0.82;;;;;;;21.33;38.91;101041.22;4833423;29;20565;-76
2023/05/10 01:06:21;;;;;;;2.95;0.98;;;;;;;21.30;38.17;101042.13;4832841;29;20061;-75
2023/05/10 01:08:50;;;;;;;1.92;1.30;;;;;;;21.26;39.88;101035.16;4836806;29;20064;-76
2023/05/10 01:11:19;;;;;;;3.55;0.90;;;;;;;21.27;39.41;101041.28;4825796;29;20058;-78
2023/05/10 01:13:54;;;;;;;1.13;0.75;;;;;;;21.19;36.45;101037.84;4837292;29;20096;-77
2023/05/10 01:16:22;;;;;;;2.72;0.88;;;;;;;21.09;39.27;101035.28;4830296;29;20149;-77
2023/05/10 01:18:52;;;;;;;1.13;1.00;;;;;;;20.97;38.57;101035.41;4834378;29;20138;-76
2023/05/10 01:21:34;;;;;;;2.33;1.02;;;;;;;20.86;37.62;101030.25;4830405;29;20066;-76
2023/05/10 01:24:34;;;;;;;3.05;0.90;;;;;;;20.85;40.42;101038.16;4837309;29;20729;-77
2023/05/10 01:27:32;;;;;;;1.40;0.77;;;;;;;20.80;39.29;101027.69;4832515;29;20133;-75
2023/05/10 01:30:36;;;;;;;2.22;0.90;;;;;;;20.80;38.98;101025.06;4836007;29;20061;-78
2023/05/10 01:33:12;;;;;;;1.83;1.05;;;;;;;20.80;39.94;101027.69;4826945;29;20053;-79
2023/05/10 01:35:47;;;;;;;1.63;1.00;;;;;;;20.78;40.58;101025.97;4840723;29;20096;-78
2023/05/10 01:38:20;;;;;;;1.92;0.90;;;;;;;20.70;38.92;101024.25;4842659;29;20078;-76
2023/05/10 01:41:02;;;;;;;1.73;0.68;;;;;;;20.66;40.01;101021.66;4843415;29;20740;-77
2023/05/10 01:43:39;;;;;;;3.05;1.00;;;;;;;20.57;37.22;101022.63;4839623;29;20560;-77
2023/05/10 01:46:12;;;;;;;1.88;0.88;;;;;;;20.51;38.69;101025.25;4839441;29;20050;-79
2023/05/10 01:48:48;;;;;;;1.77;0.82;;;;;;;20.49;39.61;101030.50;4839272;29;20129;-81
2023/05/10 01:51:30;;;;;;;1.65;0.70;;;;;;;20.45;37.30;101030.53;4832279;29;20057;-79
2023/05/10 01:54:02;;;;;;;1.35;0.70;;;;;;;20.39;42.07;101028.84;4835413;29;20102;-79
2023/05/10 01:56:35;;;;;;;1.67;0.80;;;;;;;20.33;39.70;101025.38;4838496;29;20050;-80
2023/05/10 01:59:13;;;;;;;4.00;0.90;;;;;;;20.29;39.40;101022.78;4841566;29;20046;-80
2023/05/10 02:01:43;;;;;;;0.90;0.70;;;;;;;20.23;40.32;101030.69;4842565;29;20484;-78
2023/05/10 02:04:17;;;;;;;5.10;1.17;;;;;;;20.17;42.25;101033.34;4833720;29;20496;-78
2023/05/10 02:06:47;;;;;;;1.40;0.90;;;;;;;20.09;42.07;101040.41;4837183;29;20042;-79
2023/05/10 02:09:17;;;;;;;2.08;0.90;;;;;;;19.97;40.78;101043.06;4841286;29;20689;-79
2023/05/10 02:11:49;;;;;;;1.40;1.00;;;;;;;19.91;41.16;101035.25;4836779;29;20082;-78
2023/05/10 02:14:20;;;;;;;1.25;0.70;;;;;;;19.88;40.38;101037.00;4841545;29;20076;-78
2023/05/10 02:16:49;;;;;;;1.60;0.80;;;;;;;19.87;41.89;101031.75;4833461;29;20058;-79
2023/05/10 02:19:21;;;;;;;1.98;0.82;;;;;;;19.82;42.88;101039.63;4838655;29;20065;-79
2023/05/10 02:21:52;;;;;;;1.40;0.98;;;;;;;19.75;43.65;101037.91;4838701;29;20054;-79
2023/05/10 02:24:23;;;;;;;1.92;0.80;;;;;;;19.69;43.49;101037.06;4833276;29;20141;-78
2023/05/10 02:26:52;;;;;;;2.08;0.95;;;;;;;19.62;41.00;101036.19;4837622;29;20511;-79
2023/05/10 02:29:23;;;;;;;1.10;0.90;;;;;;;19.59;42.29;101034.44;4836158;29;20050;-79
2023/05/10 02:31:54;;;;;;;2.40;0.90;;;;;;;19.53;42.76;101028.34;4834648;29;20501;-80
2023/05/10 02:34:27;;;;;;;2.75;0.80;;;;;;;19.50;44.67;101034.47;4832029;29;20692;-79
2023/05/10 02:36:56;;;;;;;1.30;1.00;;;;;;;19.47;45.58;101031.88;4841532;29;20053;-79
2023/05/10 02:39:26;;;;;;;2.13;0.60;;;;;;;19.42;44.54;101031.88;4839089;29;20110;-80
2023/05/10 02:41:56;;;;;;;3.22;1.00;;;;;;;19.37;44.80;101038.00;4839290;29;20114;-79
2023/05/10 02:44:26;;;;;;;1.35;0.70;;;;;;;19.32;42.85;101039.75;4829728;29;20086;-80
2023/05/10 02:46:55;;;;;;;1.27;0.68;;;;;;;19.27;45.00;101038.91;4838118;29;20057;-80
2023/05/10 02:49:26;;;;;;;2.28;1.30;;;;;;;19.19;44.62;101044.16;4834688;29;20054;-81
2023/05/10 02:52:02;;;;;;;5.05;0.93;;;;;;;19.13;45.16;101045.03;4838449;29;20054;-82
2023/05/10 02:54:41;;;;;;;1.00;0.60;;;;;;;19.04;45.00;101040.69;4831748;29;20056;-82
2023/05/10 02:57:19;;;;;;;2.42;0.80;;;;;;;18.97;45.56;101038.06;4829585;29;20058;-79
2023/05/10 02:59:48;;;;;;;0.98;0.60;;;;;;;18.87;45.21;101042.41;4838694;29;20061;-80
2023/05/10 03:02:16;;;;;;;1.60;0.80;;;;;;;18.81;45.83;101037.19;4833745;29;20630;-77
2023/05/10 03:04:46;;;;;;;3.45;0.70;;;;;;;18.72;45.71;101030.16;4835850;29;20041;-80
2023/05/10 03:07:15;;;;;;;1.77;0.70;;;;;;;18.68;47.15;101038.03;4832519;29;20062;-80
2023/05/10 03:09:44;;;;;;;1.98;0.88;;;;;;;18.57;46.39;101032.75;4830537;29;20065;-80
2023/05/10 03:12:21;;;;;;;3.08;0.80;;;;;;;18.48;45.30;101033.63;4833147;29;20136;-80
2023/05/10 03:14:58;;;;;;;1.08;0.60;;;;;;;18.39;45.57;101033.59;4840924;29;20065;-80
2023/05/10 03:17:32;;;;;;;1.35;0.70;;;;;;;18.34;45.57;101035.34;4835634;29;20054;-78
2023/05/10 03:20:10;;;;;;;3.67;0.77;;;;;;;18.27;45.69;101036.22;4839395;29;20101;-81
2023/05/10 03:22:42;;;;;;;2.05;0.82;;;;;;;18.23;46.31;101042.31;4836106;29;20189;-80
2023/05/10 03:25:13;;;;;;;0.60;0.55;;;;;;;18.16;46.21;101042.31;4834819;29;20413;-79
2023/05/10 03:27:44;;;;;;;3.67;0.85;;;;;;;18.10;46.39;101039.66;4836089;29;20057;-80
2023/05/10 03:30:14;;;;;;;1.63;0.98;;;;;;;18.03;46.51;101035.28;4833441;29;20509;-80
2023/05/10 03:32:43;;;;;;;2.90;1.52;;;;;;;17.96;46.79;101038.75;4838098;29;20050;-80
2023/05/10 03:35:14;;;;;;;2.90;1.10;;;;;;;17.89;48.02;101031.72;4839814;29;20049;-80
2023/05/10 03:37:43;;;;;;;2.65;1.48;;;;;;;17.79;47.58;101030.78;4840469;29;20471;-80
2023/05/10 03:40:12;;;;;;;5.60;1.48;;;;;;;17.72;49.53;101034.25;4840009;29;20118;-81
2023/05/10 03:42:40;;;;;;;2.13;0.70;;;;;;;17.57;50.13;101042.91;4844548;29;20523;-79
2023/05/10 03:45:14;;;;;;;0.70;0.43;;;;;;;17.37;52.79;101038.41;4845610;29;20041;-82
2023/05/10 03:47:43;;;;;;;1.48;0.88;;;;;;;17.23;50.75;101045.31;4854741;29;20037;-80
2023/05/10 03:50:13;;;;;;;2.33;1.15;;;;;;;17.12;51.99;101042.63;4860535;29;20049;-80
2023/05/10 03:52:42;;;;;;;3.28;0.80;;;;;;;17.04;55.97;101046.94;4855393;29;20042;-81
2023/05/10 03:55:10;;;;;;;1.35;0.80;;;;;;;16.91;55.53;101045.06;4854413;29;20062;-82
2023/05/10 03:57:39;;;;;;;2.95;1.00;;;;;;;16.84;55.56;101041.53;4846786;29;20050;-81
2023/05/10 04:00:09;;;;;;;1.17;0.73;;;;;;;16.76;55.65;101058.84;4838670;29;20091;-81
2023/05/10 04:02:37;;;;;;;2.35;1.00;;;;;;;16.66;56.96;101062.25;4837292;29;20053;-82
2023/05/10 04:05:07;;;;;;;4.85;0.80;;;;;;;16.57;57.02;101062.16;4836530;29;20058;-82
2023/05/10 04:07:37;;;;;;;3.33;1.95;;;;;;;16.45;57.00;101063.78;4831924;29;20069;-82
2023/05/10 04:10:06;;;;;;;0.75;0.68;;;;;;;16.43;58.31;101070.72;4837910;29;20517;-83
2023/05/10 04:12:35;;;;;;;2.90;0.90;;;;;;;16.33;59.05;101069.75;4838220;29;20045;-82
2023/05/10 04:15:03;;;;;;;1.67;0.95;;;;;;;16.25;59.87;101080.97;4837736;29;20058;-80
2023/05/10 04:17:32;;;;;;;2.50;1.25;;;;;;;16.19;59.86;101075.66;4833326;29;20050;-80
2023/05/10 04:20:00;;;;;;;5.55;1.13;;;;;;;16.11;60.96;101079.06;4836941;29;20050;-81
2023/05/10 04:22:29;;;;;;;2.65;0.93;;;;;;;16.05;61.91;101072.88;4836928;29;20050;-80
2023/05/10 04:24:59;;;;;;;0.75;0.70;;;;;;;15.90;62.20;101060.53;4833696;29;20046;-80
2023/05/10 04:27:28;;;;;;;6.45;1.75;;;;;;;15.82;61.87;101064.78;4839051;29;20062;-81
2023/05/10 04:29:56;;;;;;;0.77;0.60;;;;;;;15.80;62.91;101075.19;4832955;29;20057;-80
2023/05/10 04:32:25;;;;;;;1.23;0.93;;;;;;;15.74;62.20;101072.50;4831322;29;20053;-81
2023/05/10 04:34:53;;;;;;;1.88;0.90;;;;;;;15.65;62.72;101074.97;4832179;29;20058;-82
2023/05/10 04:37:22;;;;;;;2.00;1.08;;;;;;;15.57;62.93;101074.84;4837526;29;20114;-81
2023/05/10 04:39:51;;;;;;;2.22;0.77;;;;;;;15.49;63.56;101086.91;4831696;29;20061;-81
2023/05/10 04:42:21;;;;;;;1.63;0.80;;;;;;;15.43;64.91;101089.41;4838207;29;20619;-84
2023/05/10 04:44:50;;;;;;;1.08;0.70;;;;;;;15.35;64.68;101078.00;4829294;29;20042;-81
2023/05/10 04:47:18;;;;;;;2.30;0.98;;;;;;;15.25;64.94;101083.06;4835556;29;20050;-84
2023/05/10 04:49:47;;;;;;;1.55;0.68;;;;;;;15.18;64.42;101085.56;4833369;29;20763;-80
2023/05/10 04:52:17;;;;;;;1.45;0.73;;;;;;;15.10;65.79;101087.19;4832534;29;20108;-79
2023/05/10 04:54:45;;;;;;;1.48;0.80;;;;;;;15.00;66.69;101092.25;4835094;29;20086;-80
2023/05/10 04:57:14;;;;;;;1.17;0.80;;;;;;;14.95;66.17;101098.22;4834783;29;20046;-81
2023/05/10 04:59:44;;;;;;;2.38;1.20;;;;;;;14.87;66.44;101088.53;4832911;29;20054;-82
2023/05/10 05:02:13;;;;;;;4.25;1.10;;;;;;;14.82;66.56;101090.19;4838351;29;20046;-83
2023/05/10 05:04:42;;;;;;;3.53;1.05;;;;;;;14.74;67.30;101089.16;4835204;29;20085;-81
2023/05/10 05:07:10;;;;;;;3.05;1.02;;;;;;;14.68;67.87;101093.38;4839913;29;20529;-82
2023/05/10 05:09:39;;;;;;;2.33;0.90;;;;;;;14.60;69.76;101096.72;4838515;29;20493;-82
2023/05/10 05:12:08;;;;;;;1.83;0.85;;;;;;;14.51;69.61;101100.88;4835696;29;20692;-82
2023/05/10 05:14:36;;;;;;;2.15;0.95;;;;;;;14.40;69.64;101103.25;4840451;29;20062;-83
2023/05/10 05:17:13;;;;;;;4.68;1.42;;;;;;;14.28;69.82;101103.03;4841672;29;20066;-81
2023/05/10 05:19:50;;;;;;;5.45;1.70;;;;;;;14.15;70.27;101105.38;4842004;29;20054;-82
2023/05/10 05:22:19;;;;;;;4.40;1.63;;;;;;;14.09;71.64;101101.75;4838715;29;20055;-82
2023/05/10 05:24:47;;;;;;;3.08;1.50;;;;;;;14.02;72.63;101106.84;4843334;29;20057;-82
2023/05/10 05:27:16;;;;;;;3.38;0.80;;;;;;;13.95;76.33;101109.28;4840689;29;20138;-81
2023/05/10 05:29:44;;;;;;;3.78;1.42;;;;;;;13.85;77.09;101100.41;4837536;29;20567;-82
2023/05/10 05:32:15;;;;;;;4.38;1.40;;;;;;;13.75;77.98;101101.06;4838107;29;20057;-82
2023/05/10 05:34:43;;;;;;;2.47;1.30;;;;;;;13.63;79.39;101104.28;4837154;29;20170;-83
2023/05/10 05:37:15;;;;;;;5.65;1.40;;;;;;;13.56;78.94;101100.66;4837338;29;20488;-82
2023/05/10 05:39:44;;;;;;;4.03;1.40;;;;;;;13.49;79.16;101098.75;4837610;29;20168;-82
2023/05/10 05:42:14;;;;;;;8.48;1.13;;;;;;;13.44;80.04;101095.16;4835257;29;20462;-81
2023/05/10 05:44:43;;;;;;;6.85;1.75;;;;;;;13.38;80.55;101092.44;4835669;29;20751;-82
2023/05/10 05:47:12;;;;;;;3.58;1.45;;;;;;;13.34;80.09;101086.25;4833911;29;20136;-81
2023/05/10 05:49:45;;;;;;;6.05;1.58;;;;;;;13.34;79.52;101086.25;4836876;29;20061;-83
2023/05/10 05:52:14;;;;;;;1.75;1.02;;;;;;;13.32;81.08;101079.28;4838314;29;20096;-82
2023/05/10 05:54:43;;;;;;;4.38;1.10;;;;;;;13.25;82.26;101087.75;4839145;29;20084;-82
2023/05/10 05:57:11;;;;;;;3.78;1.00;;;;;;;13.25;82.51;101082.53;4838131;29;20051;-82
2023/05/10 05:59:43;;;;;;;2.47;0.90;;;;;;;13.24;82.03;101086.88;4833100;29;20088;-82
2023/05/10 06:02:12;;;;;;;1.67;0.93;;;;;;;13.25;81.54;101079.94;4837416;29;20128;-82
2023/05/10 06:04:42;;;;;;;1.25;0.73;;;;;;;13.22;78.04;101083.34;4837369;29;20497;-83
2023/05/10 06:07:10;;;;;;;5.65;1.02;;;;;;;13.19;78.78;101078.97;4840457;29;20070;-83
2023/05/10 06:09:39;;;;;;;6.32;1.13;;;;;;;13.18;76.88;101082.38;4839782;29;20513;-83
2023/05/10 06:12:08;;;;;;;0.80;0.50;;;;;;;13.13;76.93;101086.59;4842823;29;20514;-82
2023/05/10 06:14:36;;;;;;;1.27;0.80;;;;;;;13.09;76.78;101082.16;4840955;29;20046;-82
2023/05/10 06:17:12;;;;;;;0.80;0.60;;;;;;;13.06;76.29;101092.50;4530811;29;9460739;-82
2023/05/10 06:19:49;;;;;;;1.90;0.80;;;;;;;13.05;76.95;101090.72;4851025;29;20041;-82
2023/05/10 06:22:17;;;;;;;3.97;0.80;;;;;;;13.04;76.54;101093.31;4861231;29;20062;-83
2023/05/10 06:24:46;;;;;;;1.42;0.70;;;;;;;13.02;77.47;101100.16;4856089;29;20054;-83
2023/05/10 06:27:14;;;;;;;1.25;0.70;;;;;;;12.99;75.33;101095.78;4849282;29;20113;-81
2023/05/10 06:29:43;;;;;;;0.93;0.50;;;;;;;12.98;76.56;101094.00;4843245;29;20126;-83
2023/05/10 06:32:12;;;;;;;1.90;0.80;;;;;;;12.97;77.95;101092.25;4836452;29;20509;-82
2023/05/10 06:34:40;;;;;;;1.65;0.68;;;;;;;12.95;77.81;101084.44;4841129;29;20138;-82
2023/05/10 06:37:10;;;;;;;1.58;0.63;;;;;;;12.92;76.94;101086.09;4837143;29;20517;-82
2023/05/10 06:39:39;;;;;;;1.75;0.65;;;;;;;12.91;76.94;101085.19;4834261;29;20064;-82
2023/05/10 06:42:07;;;;;;;2.75;0.70;;;;;;;12.92;77.55;101088.69;4836936;29;20050;-82
2023/05/10 06:44:36;;;;;;;3.50;0.60;;;;;;;12.91;77.49;101086.91;4840164;29;20065;-82
2023/05/10 06:47:04;;;;;;;2.13;0.57;;;;;;;12.88;78.63;101085.13;4836827;29;20054;-83
2023/05/10 06:49:33;;;;;;;0.98;0.55;;;;;;;12.88;77.97;101089.44;4841539;29;20054;-81
2023/05/10 06:52:02;;;;;;;0.82;0.50;;;;;;;12.86;77.09;101088.53;4838773;29;20050;-82
2023/05/10 06:54:32;;;;;;;0.80;0.50;;;;;;;12.86;77.38;101093.72;4839341;29;20054;-81
2023/05/10 06:57:00;;;;;;;1.13;0.70;;;;;;;12.81;78.33;101090.13;4842418;29;20054;-82
2023/05/10 06:59:29;;;;;;;0.50;0.40;;;;;;;12.75;81.63;101098.63;4839239;29;21183;-81
2023/05/10 07:01:58;;;;;;;1.98;0.75;;;;;;;12.70;80.98;101093.31;4835829;29;20053;-82
2023/05/10 07:04:26;;;;;;;4.60;0.50;;;;;;;12.70;79.89;101093.31;4843592;29;20058;-82
2023/05/10 07:06:55;;;;;;;0.82;0.57;;;;;;;12.71;79.13;101094.19;4838904;29;20075;-80
2023/05/10 07:09:24;;;;;;;1.13;0.68;;;;;;;12.71;79.45;101089.88;4835429;29;20069;-82
2023/05/10 07:11:54;;;;;;;2.20;0.50;;;;;;;12.71;79.36;101097.69;4839720;29;20054;-83
2023/05/10 07:14:23;;;;;;;1.42;0.50;;;;;;;12.73;77.51;101093.38;4842735;29;20145;-83
2023/05/10 07:16:51;;;;;;;1.00;0.70;;;;;;;12.74;78.75;101094.28;4838848;29;20508;-82
2023/05/10 07:19:20;;;;;;;0.52;0.30;;;;;;;12.76;77.19;101092.59;4833550;29;20058;-82
2023/05/10 07:21:48;;;;;;;1.45;0.40;;;;;;;12.77;79.75;101095.22;4832578;29;20075;-83
2023/05/10 07:24:17;;;;;;;0.47;0.30;;;;;;;12.77;79.04;101094.34;4836194;29;20115;-83
2023/05/10 07:26:46;;;;;;;4.93;0.82;;;;;;;12.77;78.30;101092.63;4837538;29;20561;-83
2023/05/10 07:29:16;;;;;;;2.90;0.68;;;;;;;12.77;78.34;101095.22;4836056;29;20133;-84
2023/05/10 07:31:44;;;;;;;1.23;0.60;;;;;;;12.78;78.68;101097.00;4839300;29;20065;-83
2023/05/10 07:34:13;;;;;;;0.88;0.40;;;;;;;12.79;78.48;101097.88;4836875;29;20108;-82
2023/05/10 07:36:41;;;;;;;4.70;0.68;;;;;;;12.77;79.73;101095.22;4837716;29;20057;-82
2023/05/10 07:39:10;;;;;;;4.43;0.65;;;;;;;12.73;78.52;101095.97;4835941;29;20141;-83
2023/05/10 07:41:39;;;;;;;0.75;0.50;;;;;;;12.72;78.02;101096.81;4833934;29;20133;-82
2023/05/10 07:44:08;;;;;;;0.32;0.32;;;;;;;12.68;79.44;101092.38;4830090;29;20050;-81
2023/05/10 07:46:38;;;;;;;3.17;0.50;;;;;;;12.66;79.25;101088.88;4826752;29;20054;-82
2023/05/10 07:49:07;;;;;;;2.08;0.70;;;;;;;12.63;79.39;101090.53;4830330;29;20504;-81
2023/05/10 07:51:35;;;;;;;1.80;0.57;;;;;;;12.60;78.85;101085.22;4839767;29;20046;-84
2023/05/10 07:54:04;;;;;;;0.75;0.43;;;;;;;12.56;79.86;101086.88;4835662;29;20046;-82
2023/05/10 07:56:34;;;;;;;1.73;0.75;;;;;;;12.53;78.82;101086.81;4835399;29;20053;-81
2023/05/10 07:59:04;;;;;;;0.73;0.50;;;;;;;12.51;77.67;101086.75;4839744;29;20058;-81
2023/05/10 08:01:33;;;;;;;0.75;0.30;;;;;;;12.50;77.57;101081.50;4831886;29;20054;-80
2023/05/10 08:04:04;;;;;;;4.35;0.70;;;;;;;12.45;79.57;101080.53;4836021;29;20144;-81
2023/05/10 08:06:32;;;;;;;2.58;0.60;;;;;;;12.43;81.36;101077.00;4839377;29;20454;-81
2023/05/10 08:09:01;;;;;;;0.85;0.50;;;;;;;12.39;81.75;101077.75;4838149;29;20074;-81
2023/05/10 08:11:29;;;;;;;3.30;0.60;;;;;;;12.36;80.75;101076.81;4839847;29;20062;-82
2023/05/10 08:13:58;;;;;;;2.53;0.57;;;;;;;12.34;79.66;101082.81;4836355;29;20511;-83
2023/05/10 08:16:26;;;;;;;2.60;0.68;;;;;;;12.28;79.48;101073.16;4838304;29;20089;-80
2023/05/10 08:18:55;;;;;;;0.85;0.50;;;;;;;12.25;79.68;101087.75;4833588;29;20512;-81
2023/05/10 08:21:26;;;;;;;2.10;0.60;;;;;;;12.21;78.95;101076.41;4833185;29;20085;-81
2023/05/10 08:23:54;;;;;;;1.42;0.77;;;;;;;12.19;79.69;101072.91;4833262;29;20524;-81
2023/05/10 08:26:23;;;;;;;1.63;1.10;;;;;;;12.17;79.54;101071.97;4837753;29;20411;-82
2023/05/10 08:28:51;;;;;;;0.55;0.40;;;;;;;12.10;79.35;101070.94;4838870;29;20130;-80
2023/05/10 08:31:20;;;;;;;0.88;0.55;;;;;;;12.05;79.59;101063.81;4834926;29;20053;-80
2023/05/10 08:33:48;;;;;;;0.60;0.50;;;;;;;12.09;78.57;101078.66;4840974;29;20054;-80
2023/05/10 08:36:21;;;;;;;0.57;0.47;;;;;;;12.08;79.13;101074.31;4832893;29;20582;-80
2023/05/10 08:38:52;;;;;;;0.75;0.50;;;;;;;12.07;78.22;101076.03;4839563;29;20046;-80
2023/05/10 08:41:23;;;;;;;1.73;0.47;;;;;;;12.05;78.13;101071.59;4836153;29;20081;-80
2023/05/10 08:43:53;;;;;;;1.73;0.73;;;;;;;12.01;79.04;101077.56;4836944;29;20102;-81
2023/05/10 08:46:23;;;;;;;0.95;0.57;;;;;;;11.95;80.77;101079.13;4843424;29;20046;-81
2023/05/10 08:48:52;;;;;;;2.83;0.70;;;;;;;11.90;81.78;101075.53;4842193;29;20053;-82
2023/05/10 08:51:26;;;;;;;1.02;0.70;;;;;;;11.88;81.55;101073.72;4832846;29;20081;-81
2023/05/10 08:53:57;;;;;;;0.98;0.47;;;;;;;11.88;80.26;101077.19;4860223;29;20041;-82
2023/05/10 08:56:25;;;;;;;2.97;0.52;;;;;;;11.87;78.74;101072.84;4857602;29;20034;-81
2023/05/10 08:58:54;;;;;;;1.35;0.40;;;;;;;11.84;79.40;101075.34;4858107;29;20079;-82
2023/05/10 09:01:24;;;;;;;3.13;0.60;;;;;;;11.82;79.93;101066.63;4839813;29;20050;-82
2023/05/10 09:03:53;;;;;;;1.30;0.60;;;;;;;11.83;79.91;101070.09;4841998;29;20096;-83
2023/05/10 09:06:22;;;;;;;3.95;1.08;;;;;;;11.81;82.47;101071.75;4837386;29;20938;-82
2023/05/10 09:08:51;;;;;;;0.50;0.50;;;;;;;11.78;82.36;101069.09;4837182;29;20050;-82
2023/05/10 09:11:22;;;;;;;1.80;0.75;;;;;;;11.79;82.82;101063.06;4832703;29;20687;-82
2023/05/10 09:13:52;;;;;;;1.10;0.60;;;;;;;11.76;82.31;101069.03;4835756;29;20062;-82
2023/05/10 09:16:21;;;;;;;4.20;0.90;;;;;;;11.76;83.29;101071.63;4837915;29;20062;-83
2023/05/10 09:18:50;;;;;;;3.75;1.15;;;;;;;11.70;81.97;101069.75;4827840;29;20564;-82
2023/05/10 09:21:20;;;;;;;4.50;0.93;;;;;;;11.67;82.68;101072.22;4838546;29;20113;-83
2023/05/10 09:23:53;;;;;;;3.42;0.80;;;;;;;11.63;83.99;101072.09;4837573;29;20050;-83
2023/05/10 09:26:26;;;;;;;1.50;0.70;;;;;;;11.60;84.95;101074.59;4833535;29;20068;-83
2023/05/10 09:28:55;;;;;;;;;;;;;;;11.57;85.03;101082.25;4830889;29;20754;-82
2023/05/10 09:31:24;;;;;;;1.58;0.93;;;;;;;11.55;85.08;101078.78;4835935;29;19928;-83
2023/05/10 09:33:53;;;;;;;1.25;0.88;;;;;;;11.55;85.36;101076.19;4828547;29;20119;-83
2023/05/10 09:36:22;;;;;;;1.25;0.65;;;;;;;11.51;86.04;101076.06;4831979;29;20454;-82
2023/05/10 09:38:52;;;;;;;1.50;0.68;;;;;;;11.49;85.40;101075.13;4836288;29;20060;-82
2023/05/10 09:41:22;;;;;;;1.17;0.65;;;;;;;11.48;85.88;101078.56;4834095;29;20695;-81
2023/05/10 09:43:56;;;;;;;3.47;1.17;;;;;;;11.47;85.82;101083.69;4834319;29;20057;-82
2023/05/10 09:46:25;;;;;;;2.08;1.00;;;;;;;11.46;85.95;101081.94;4836431;29;20057;-81
2023/05/10 09:48:54;;;;;;;4.43;0.90;;;;;;;11.45;86.07;101073.31;4831001;29;20079;-82
2023/05/10 09:51:23;;;;;;;2.28;0.80;;;;;;;11.40;86.01;101067.06;4832642;29;20552;-82
2023/05/10 09:54:11;;;;;;;4.93;1.10;;;;;;;11.32;87.24;101078.94;4833909;29;20501;-82
2023/05/10 09:56:41;;;;;;;3.47;1.40;;;;;;;11.25;87.16;101074.38;4838440;29;20076;-81
2023/05/10 09:59:13;;;;;;;1.70;1.40;;;;;;;11.22;87.31;101076.84;4830709;29;20102;-81
2023/05/10 10:01:42;;;;;;;2.58;1.27;;;;;;;11.22;88.66;101066.50;4842293;29;20050;-82
2023/05/10 10:04:12;;;;;;;2.80;1.50;;;;;;;11.22;88.52;101071.69;4833306;29;20061;-82
2023/05/10 10:06:41;;;;;;;1.80;1.02;;;;;;;11.19;88.73;101066.41;4830001;29;20088;-82
2023/05/10 10:09:10;;;;;;;5.82;1.55;;;;;;;11.17;89.19;101063.75;4834298;29;20157;-82
2023/05/10 10:11:41;;;;;;;3.58;1.10;;;;;;;11.14;89.59;101067.97;4837918;29;20057;-81
2023/05/10 10:14:13;;;;;;;5.47;1.40;;;;;;;11.09;89.37;101060.06;4838123;29;20049;-82
2023/05/10 10:16:41;;;;;;;2.80;1.20;;;;;;;11.06;89.06;101070.31;4836605;29;20066;-83
2023/05/10 10:19:10;;;;;;;3.13;1.50;;;;;;;11.00;87.79;101071.00;4838578;29;20066;-81
2023/05/10 10:21:38;;;;;;;1.50;1.13;;;;;;;10.94;89.15;101075.97;4838911;29;20049;-81
2023/05/10 10:24:08;;;;;;;2.92;1.55;;;;;;;10.89;88.68;101080.13;4840916;29;20423;-80
2023/05/10 10:26:38;;;;;;;2.00;1.27;;;;;;;10.84;89.79;101069.59;4843057;29;20054;-80
2023/05/10 10:29:20;;;;;;;2.20;1.42;;;;;;;10.79;89.97;101076.34;4838958;29;20050;-80
2023/05/10 10:31:55;;;;;;;4.38;1.75;;;;;;;10.78;89.53;101073.69;4845472;29;20062;-80
2023/05/10 10:34:29;;;;;;;5.13;2.17;;;;;;;10.74;90.34;101077.88;4836434;29;20497;-81
2023/05/10 10:36:59;;;;;;;6.60;2.13;;;;;;;10.68;92.90;101070.81;4836436;29;20115;-80
2023/05/10 10:39:28;;;;;;;4.13;1.95;;;;;;;10.64;93.55;101074.09;4839952;29;20058;-80
2023/05/10 10:41:58;;;;;;;3.35;1.77;;;;;;;10.61;93.20;101071.44;4833917;29;20088;-80
2023/05/10 10:44:40;;;;;;;4.45;1.95;;;;;;;10.61;92.22;101076.59;4835690;29;20058;-80
2023/05/10 10:47:28;;;;;;;4.75;1.80;;;;;;;10.59;91.42;101072.19;4835411;29;20066;-81
2023/05/10 10:50:06;;;;;;;5.82;3.10;;;;;;;10.56;93.04;101082.44;4835538;29;20054;-81
2023/05/10 10:52:35;;;;;;;4.32;2.35;;;;;;;10.54;92.96;101081.53;4841001;29;20509;-82
2023/05/10 10:55:06;;;;;;;2.42;1.95;;;;;;;10.52;93.35;101072.81;4841358;29;20058;-82
2023/05/10 10:57:44;;;;;;;7.20;2.35;;;;;;;10.46;92.55;101070.88;4828199;29;20523;-82
2023/05/10 11:00:30;;;;;;;6.30;2.33;;;;;;;10.44;93.10;101067.34;4841476;29;20053;-82
2023/05/10 11:03:00;;;;;;;8.95;2.83;;;;;;;10.40;92.91;101066.38;4838411;29;20141;-81
2023/05/10 11:05:46;;;;;;;12.13;4.45;;;;;;;10.36;92.42;101069.69;4836204;29;20050;-81
2023/05/10 11:08:21;;;;;;;19.33;5.82;;;;;;;10.33;93.23;101068.69;4832210;29;20076;-81
2023/05/10 11:11:08;;;;;;;12.02;4.60;;;;;;;10.26;93.10;101073.63;4838930;29;20118;-80
2023/05/10 11:13:40;;;;;;;12.25;4.43;;;;;;;10.22;93.70;101079.50;4833455;29;20176;-80
2023/05/10 11:16:18;;;;;;;14.25;3.25;;;;;;;10.18;94.98;101076.75;4840409;29;20063;-80
2023/05/10 11:18:56;;;;;;;7.18;4.13;;;;;;;10.13;94.53;101086.06;4832381;29;20119;-80
2023/05/10 11:21:24;;;;;;;6.50;3.00;;;;;;;10.08;94.67;101083.31;4840264;29;20054;-79
2023/05/10 11:23:56;;;;;;;5.20;2.63;;;;;;;10.05;95.12;101085.75;4846250;29;20053;-80
2023/05/10 11:26:25;;;;;;;5.50;2.25;;;;;;;10.04;95.17;101086.59;4850548;29;20060;-80
2023/05/10 11:28:56;;;;;;;8.73;2.58;;;;;;;10.00;94.56;101089.88;4854966;29;20120;-81
2023/05/10 11:31:27;;;;;;;5.55;2.47;;;;;;;9.98;96.21;101086.34;4852542;29;20513;-81
2023/05/10 11:33:56;;;;;;;3.35;2.20;;;;;;;9.93;95.56;101080.16;4830521;29;20042;-81
2023/05/10 11:36:27;;;;;;;4.90;2.20;;;;;;;9.91;97.22;101081.78;4838316;29;20061;-81
2023/05/10 11:38:57;;;;;;;4.18;2.30;;;;;;;9.87;96.15;101085.94;4831126;29;20077;-81
2023/05/10 11:41:26;;;;;;;5.32;2.60;;;;;;;9.84;96.65;101084.13;4839480;29;20058;-83